Terminal Aerodrome Forecast
Issued by NWS

Home | Current Version | Previous Version | Text Only | Print | Product List | Glossary On
Versions: 1 2 3 4 5 6 7 8 9 10 11 12 13 14 15 16 17 18 19 20 21 22 23 24 25 26 27
000
FTUS46 KPDT 241200 AAA
TAFDLS
TAF AMD
KDLS 241216Z 2412/2512 11005KT P6SM SCT035 BKN050
     FM241400 09004KT P6SM SCT025 BKN035
      TEMPO 2414/2417 6SM BR SCT020 BKN025
     FM241700 31005KT P6SM SCT025 BKN150
     FM242100 31006KT P6SM SCT050 OVC080=

USA.gov is the U.S. government's official web portal to all federal, state and local government web resources and services.